Andrews, Texas
Current Conditions -  °F | °C
As of 7:35 PM on Monday 20 Oct 2014 (Local Time) from KE11 Reporting Station
Clear Clear  
Wind Chill: 68°   Ceiling: Unl
Heat Index: 68°   Visibility: 10mi
Dew Point: 52°   Wind: 6mph
Humidity: 57%   Direction: 120°ESE
Pressure: 30.07"   Gusts: NA
Location:  32.32°N, 102.54°W
Report Text: KE11 210035Z AUTO 12005KT 10SM CLR 20/11 A3007 RMK AO2 T02010113
Loading
Personal Weather Stations






























Interactive Weather Map
Tropical Storm Tracking
New forecast layout! Learn more

10-Day Weather Forecast

Advertisements
Track Severe Weather on mobile